M/V Cadenza — WDD3063 — position and weather

sailwx.info

Track history (hours):
 
Tides and Currents Weather Stations Pressure Air Temp Water Temp Dewpoint Dewpoint Depression Visibility Wind Speed Wind Dir Waves Ship Positions

M/V Cadenza

Owner: Fulton, David L, Raleigh, NC. More information available from US FCC via Universal Licensing System.

Last reported at 2017-Dec-15 02:30 UTC. Time now 2017-Dec-16 05:31 UTC.
Position N 48°44' W 122°31'.

Length 25 m; draft 2.6 m.

Type: Pleasure craft. MMSI: 367123350.

Date/timePositionNaut miles runAvg speedWind from/ knotsBaromVisibWave heightAir tempDewpointWater temp
2017-Dec-15 02:30N 48°44' W 122°31'1 0.9
2017-Dec-15 01:00N 48°42' W 122°32'3 6.3
2017-Dec-15 00:30N 48°45' W 122°31'  
2017-Dec-10 21:42N 48°45' W 122°31'0 0.2
2017-Dec-10 21:21N 48°45' W 122°31'3 8.1
2017-Dec-10 20:59N 48°43' W 122°32'3 7.2
2017-Dec-10 20:30N 48°39' W 122°31'1 2.2
2017-Dec-10 20:00N 48°39' W 122°30'1 1.4
2017-Dec-10 19:29N 48°39' W 122°30'1 2.1
2017-Dec-10 19:00N 48°40' W 122°31'5 9.5
2017-Dec-10 18:29N 48°45' W 122°31'  
Track history (hours):
 
Tides and Currents Weather Stations Pressure Air Temp Water Temp Dewpoint Dewpoint Depression Visibility Wind Speed Wind Dir Waves Ship Positions

M/V Cadenza

Owner: Fulton, David L, Raleigh, NC. More information available from US FCC via Universal Licensing System.

Last reported at 2017-Dec-15 02:30 UTC. Time now 2017-Dec-16 05:31 UTC.
Position N 48°44' W 122°31'.

Length 25 m; draft 2.6 m.

Type: Pleasure craft. MMSI: 367123350.

Date/timePositionNaut miles runAvg speedWind from/ knotsBaromVisibWave heightAir tempDewpointWater temp
2017-Dec-15 02:30N 48°44' W 122°31'1 0.9
2017-Dec-15 01:00N 48°42' W 122°32'3 6.3
2017-Dec-15 00:30N 48°45' W 122°31'  
2017-Dec-10 21:42N 48°45' W 122°31'0 0.2
2017-Dec-10 21:21N 48°45' W 122°31'3 8.1
2017-Dec-10 20:59N 48°43' W 122°32'3 7.2
2017-Dec-10 20:30N 48°39' W 122°31'1 2.2
2017-Dec-10 20:00N 48°39' W 122°30'1 1.4
2017-Dec-10 19:29N 48°39' W 122°30'1 2.1
2017-Dec-10 19:00N 48°40' W 122°31'5 9.5
2017-Dec-10 18:29N 48°45' W 122°31'  

Dump ship's entire track history